createdAt,value
2018-09-01T00:00:20.416Z,14.57
2018-09-01T00:02:49.952Z,14.73
2018-09-01T00:05:19.576Z,14.13
2018-09-01T00:07:49.133Z,14.63
2018-09-01T00:10:18.708Z,13.40
2018-09-01T00:12:48.239Z,14.60
2018-09-01T00:15:17.756Z,13.53
2018-09-01T00:17:47.289Z,14.17
2018-09-01T00:20:16.803Z,13.13
2018-09-01T00:22:46.377Z,12.77
2018-09-01T00:25:15.959Z,12.93
2018-09-01T00:27:45.565Z,13.10
2018-09-01T00:30:15.096Z,13.10
2018-09-01T00:32:44.696Z,12.70
2018-09-01T00:35:14.199Z,14.60
2018-09-01T00:37:48.828Z,14.23
2018-09-01T00:40:18.359Z,13.97
2018-09-01T00:42:47.871Z,13.67
2018-09-01T00:45:17.411Z,12.83
2018-09-01T00:47:46.971Z,15.33
2018-09-01T00:50:16.588Z,13.57
2018-09-01T00:52:46.164Z,14.27
2018-09-01T00:55:20.855Z,14.13
2018-09-01T00:57:50.346Z,13.97
2018-09-01T01:00:19.979Z,13.87
2018-09-01T01:02:50.031Z,13.87
2018-09-01T01:05:19.652Z,14.40
2018-09-01T01:07:49.235Z,14.43
2018-09-01T01:10:18.820Z,14.40
2018-09-01T01:12:49.239Z,15.37
2018-09-01T01:15:19.311Z,15.37
2018-09-01T01:17:48.843Z,15.60
2018-09-01T01:20:18.460Z,15.10
2018-09-01T01:22:48.001Z,16.17
2018-09-01T01:25:17.615Z,16.53
2018-09-01T01:27:47.153Z,16.90
2018-09-01T01:30:16.652Z,16.50
2018-09-01T01:32:46.246Z,17.17
2018-09-01T01:35:15.735Z,17.67
2018-09-01T01:37:45.271Z,17.73
2018-09-01T01:40:14.835Z,17.17
2018-09-01T01:42:44.523Z,18.23
2018-09-01T01:45:14.171Z,16.97
2018-09-01T01:47:43.776Z,17.40
2018-09-01T01:50:13.272Z,17.40
2018-09-01T01:52:42.884Z,17.53
2018-09-01T01:55:12.449Z,19.70
2018-09-01T01:57:47.080Z,19.00
2018-09-01T02:00:16.619Z,18.73
2018-09-01T02:02:46.663Z,19.60
2018-09-01T02:05:17.202Z,20.13
2018-09-01T02:07:47.968Z,18.60
2018-09-01T02:10:17.643Z,19.57
2018-09-01T02:12:47.239Z,18.97
2018-09-01T02:15:16.763Z,18.80
2018-09-01T02:17:46.255Z,17.93
2018-09-01T02:20:15.890Z,16.20
2018-09-01T02:22:45.435Z,16.73
2018-09-01T02:25:15.036Z,16.87
2018-09-01T02:27:44.654Z,16.67
2018-09-01T02:30:14.220Z,19.10
2018-09-01T02:32:43.800Z,18.33
2018-09-01T02:35:13.304Z,17.73
2018-09-01T02:37:42.882Z,20.77
2018-09-01T02:40:12.452Z,17.90
2018-09-01T02:42:42.000Z,17.30
2018-09-01T02:45:11.500Z,18.23
2018-09-01T02:47:41.055Z,17.70
2018-09-01T02:50:10.624Z,18.47
2018-09-01T02:52:40.159Z,19.17
2018-09-01T02:55:09.708Z,17.87
2018-09-01T02:57:39.320Z,17.10
2018-09-01T03:00:13.919Z,16.90
2018-09-01T03:02:45.175Z,17.10
2018-09-01T03:05:16.135Z,16.47
2018-09-01T03:07:45.801Z,16.23
2018-09-01T03:10:15.364Z,16.87
2018-09-01T03:12:44.939Z,16.90
2018-09-01T03:15:14.459Z,17.00
2018-09-01T03:17:44.011Z,16.30
2018-09-01T03:20:13.530Z,15.80
2018-09-01T03:22:43.072Z,16.47
2018-09-01T03:25:12.639Z,24.93
2018-09-01T03:27:42.175Z,20.23
2018-09-01T03:30:11.833Z,17.10
2018-09-01T03:32:41.339Z,20.63
2018-09-01T03:35:10.923Z,19.20
2018-09-01T03:37:40.432Z,16.60
2018-09-01T03:40:10.032Z,22.13
2018-09-01T03:42:39.595Z,17.87
2018-09-01T03:45:09.107Z,17.37
2018-09-01T03:47:38.743Z,18.70
2018-09-01T03:50:08.339Z,29.57
2018-09-01T03:52:37.887Z,19.87
2018-09-01T03:55:07.424Z,19.37
2018-09-01T03:57:37.016Z,20.70
2018-09-01T04:00:06.709Z,19.50
2018-09-01T04:02:36.656Z,17.30
2018-09-01T04:05:07.243Z,19.90
2018-09-01T04:07:36.868Z,18.97
2018-09-01T04:10:06.458Z,17.13
2018-09-01T04:12:35.971Z,20.90
2018-09-01T04:15:06.027Z,29.97
2018-09-01T04:17:35.547Z,19.23
2018-09-01T04:20:05.101Z,18.50
2018-09-01T04:22:34.660Z,17.53
2018-09-01T04:25:04.247Z,17.23
2018-09-01T04:27:33.839Z,19.80
2018-09-01T04:30:03.499Z,18.57
2018-09-01T04:32:33.005Z,18.60
2018-09-01T04:35:02.608Z,20.57
2018-09-01T04:37:32.176Z,23.23
2018-09-01T04:40:01.803Z,19.63
2018-09-01T04:42:31.450Z,16.23
2018-09-01T04:45:00.955Z,19.30
2018-09-01T04:47:30.512Z,19.63
2018-09-01T04:50:00.071Z,16.40
2018-09-01T04:52:29.732Z,20.93
2018-09-01T04:54:59.288Z,22.57
2018-09-01T04:57:28.876Z,20.27
2018-09-01T04:59:58.472Z,18.97
2018-09-01T05:02:28.049Z,16.97
2018-09-01T05:04:57.686Z,20.03
2018-09-01T05:07:27.212Z,19.87
2018-09-01T05:09:56.751Z,30.57
2018-09-01T05:12:26.360Z,19.00
2018-09-01T05:14:55.905Z,31.33
2018-09-01T05:17:25.421Z,18.57
2018-09-01T05:19:55.020Z,19.20
2018-09-01T05:22:24.523Z,22.10
2018-09-01T05:24:54.244Z,24.23
2018-09-01T05:27:23.789Z,21.03
2018-09-01T05:29:53.364Z,17.93
2018-09-01T05:32:22.971Z,20.67
2018-09-01T05:34:52.640Z,17.50
2018-09-01T05:37:22.333Z,26.77
2018-09-01T05:39:51.928Z,20.10
2018-09-01T05:42:21.472Z,28.20
2018-09-01T05:44:50.995Z,27.63
2018-09-01T05:47:20.579Z,20.17
2018-09-01T05:49:50.189Z,16.43
2018-09-01T05:52:19.695Z,19.17
2018-09-01T05:54:49.263Z,17.40
2018-09-01T05:57:18.775Z,20.07
2018-09-01T05:59:48.391Z,24.87
2018-09-01T06:02:17.991Z,14.40
2018-09-01T06:04:47.560Z,17.57
2018-09-01T06:07:17.204Z,13.43
2018-09-01T06:09:46.791Z,14.07
2018-09-01T06:12:16.368Z,25.00
2018-09-01T06:14:46.061Z,13.57
2018-09-01T06:17:15.567Z,31.03
2018-09-01T06:19:45.127Z,13.37
2018-09-01T06:22:14.680Z,16.27
2018-09-01T06:24:44.326Z,11.97
2018-09-01T06:27:18.800Z,12.97
2018-09-01T06:29:48.678Z,12.20
2018-09-01T06:32:18.730Z,12.37
2018-09-01T06:34:48.341Z,14.57
2018-09-01T06:37:17.958Z,13.03
2018-09-01T06:39:47.459Z,15.87
2018-09-01T06:42:17.027Z,12.27
2018-09-01T06:44:46.673Z,14.53
2018-09-01T06:47:16.248Z,12.77
2018-09-01T06:49:45.864Z,12.67
2018-09-01T06:52:15.381Z,14.00
2018-09-01T06:54:44.946Z,15.03
2018-09-01T06:57:14.500Z,13.43
2018-09-01T06:59:44.034Z,13.73
2018-09-01T07:02:13.684Z,13.47
2018-09-01T07:04:43.252Z,13.80
2018-09-01T07:07:12.864Z,12.00
2018-09-01T07:09:42.407Z,15.53
2018-09-01T07:12:11.985Z,26.17
2018-09-01T07:14:41.605Z,11.70
2018-09-01T07:17:11.115Z,11.57
2018-09-01T07:19:40.708Z,11.63
2018-09-01T07:22:10.332Z,11.83
2018-09-01T07:24:39.910Z,12.87
2018-09-01T07:27:09.556Z,11.93
2018-09-01T07:29:39.137Z,16.67
2018-09-01T07:32:08.790Z,12.17
2018-09-01T07:34:38.369Z,11.30
2018-09-01T07:37:08.015Z,11.97
2018-09-01T07:39:37.570Z,12.93
2018-09-01T07:42:07.428Z,12.07
2018-09-01T07:44:37.331Z,12.20
2018-09-01T07:47:06.920Z,12.30
2018-09-01T07:49:36.467Z,19.97
2018-09-01T07:52:06.081Z,12.33
2018-09-01T07:54:35.743Z,16.70
2018-09-01T07:57:05.578Z,12.50
2018-09-01T07:59:35.137Z,13.60
2018-09-01T08:02:04.780Z,14.97
2018-09-01T08:04:34.458Z,11.60
2018-09-01T08:07:04.021Z,12.50
2018-09-01T08:09:33.579Z,12.27
2018-09-01T08:12:03.151Z,11.83
2018-09-01T08:14:32.827Z,16.07
2018-09-01T08:17:02.467Z,13.83
2018-09-01T08:19:32.112Z,11.83
2018-09-01T08:22:01.692Z,21.30
2018-09-01T08:24:31.284Z,13.83
2018-09-01T08:27:00.797Z,23.20
2018-09-01T08:29:30.355Z,13.73
2018-09-01T08:31:59.939Z,16.37
2018-09-01T08:34:29.515Z,12.10
2018-09-01T08:36:59.043Z,11.93
2018-09-01T08:39:28.599Z,11.77
2018-09-01T08:41:58.256Z,14.77
2018-09-01T08:44:27.824Z,11.47
2018-09-01T08:46:57.407Z,17.47
2018-09-01T08:49:26.907Z,11.87
2018-09-01T08:51:56.466Z,12.03
2018-09-01T08:54:26.028Z,17.93
2018-09-01T08:56:55.547Z,11.73
2018-09-01T08:59:25.151Z,10.90
2018-09-01T09:01:54.695Z,12.33
2018-09-01T09:04:24.212Z,10.60
2018-09-01T09:06:53.817Z,14.17
2018-09-01T09:09:23.559Z,12.10
2018-09-01T09:11:53.129Z,11.50
2018-09-01T09:14:22.724Z,11.60
2018-09-01T09:16:52.393Z,11.53
2018-09-01T09:19:21.990Z,11.67
2018-09-01T09:21:51.765Z,9.97
2018-09-01T09:24:21.333Z,10.90
2018-09-01T09:26:50.969Z,10.63
2018-09-01T09:29:20.527Z,10.33
2018-09-01T09:31:50.136Z,10.03
2018-09-01T09:34:19.747Z,11.27
2018-09-01T09:36:49.432Z,10.13
2018-09-01T09:39:19.028Z,10.37
2018-09-01T09:41:48.605Z,11.63
2018-09-01T09:44:18.096Z,9.93
2018-09-01T09:46:47.678Z,9.70
2018-09-01T09:49:17.295Z,9.27
2018-09-01T09:51:46.908Z,11.10
2018-09-01T09:54:16.576Z,10.27
2018-09-01T09:56:46.211Z,11.90
2018-09-01T09:59:15.762Z,11.27
2018-09-01T10:01:45.403Z,10.33
2018-09-01T10:04:14.994Z,9.90
2018-09-01T10:06:44.624Z,10.80
2018-09-01T10:09:15.454Z,12.77
2018-09-01T10:11:45.172Z,10.93
2018-09-01T10:14:14.671Z,12.40
2018-09-01T10:16:44.231Z,10.50
2018-09-01T10:19:13.739Z,10.87
2018-09-01T10:21:43.436Z,10.93
2018-09-01T10:24:12.985Z,10.33
2018-09-01T10:26:42.592Z,10.27
2018-09-01T10:29:12.188Z,10.70
2018-09-01T10:31:41.835Z,10.37
2018-09-01T10:34:11.335Z,10.20
2018-09-01T10:36:40.960Z,11.20
2018-09-01T10:39:11.055Z,10.10
2018-09-01T10:41:40.600Z,10.30
2018-09-01T10:44:10.255Z,11.10
2018-09-01T10:46:39.884Z,11.63
2018-09-01T10:49:09.498Z,10.13
2018-09-01T10:51:39.059Z,10.30
2018-09-01T10:54:08.622Z,9.80
2018-09-01T10:56:38.223Z,9.47
2018-09-01T10:59:07.860Z,9.77
2018-09-01T11:01:37.367Z,10.50
2018-09-01T11:04:07.004Z,9.47
2018-09-01T11:06:36.609Z,9.70
2018-09-01T11:09:08.760Z,9.80
2018-09-01T11:11:38.330Z,10.27
2018-09-01T11:14:07.846Z,10.67
2018-09-01T11:16:37.449Z,9.47
2018-09-01T11:19:07.044Z,9.87
2018-09-01T11:21:36.635Z,9.63
2018-09-01T11:24:06.327Z,9.33
2018-09-01T11:26:35.929Z,10.03
2018-09-01T11:29:05.582Z,10.27
2018-09-01T11:31:35.175Z,9.90
2018-09-01T11:34:04.776Z,9.87
2018-09-01T11:36:34.398Z,10.07
2018-09-01T11:39:05.240Z,10.90
2018-09-01T11:41:34.849Z,10.43
2018-09-01T11:44:04.420Z,10.60
2018-09-01T11:46:34.020Z,10.33
2018-09-01T11:49:03.543Z,10.63
2018-09-01T11:51:33.123Z,10.13
2018-09-01T11:54:02.654Z,9.73
2018-09-01T11:56:32.205Z,10.53
2018-09-01T11:59:01.704Z,9.83
2018-09-01T12:01:31.244Z,9.97
2018-09-01T12:04:00.800Z,10.23
2018-09-01T12:06:30.412Z,10.30
2018-09-01T12:09:00.148Z,10.13
2018-09-01T12:11:29.722Z,10.17
2018-09-01T12:13:59.357Z,10.30
2018-09-01T12:16:28.963Z,10.57
2018-09-01T12:18:58.497Z,10.67
2018-09-01T12:21:28.210Z,10.63
2018-09-01T12:23:57.787Z,10.37
2018-09-01T12:26:27.318Z,10.20
2018-09-01T12:28:56.966Z,10.57
2018-09-01T12:31:26.572Z,10.57
2018-09-01T12:33:56.126Z,10.47
2018-09-01T12:36:25.724Z,10.17
2018-09-01T12:38:55.319Z,11.17
2018-09-01T12:41:24.968Z,10.63
2018-09-01T12:43:54.572Z,11.13
2018-09-01T12:46:24.083Z,9.97
2018-09-01T12:48:53.685Z,13.67
2018-09-01T12:51:23.251Z,10.00
2018-09-01T12:53:52.844Z,10.90
2018-09-01T12:56:22.391Z,10.23
2018-09-01T12:58:51.983Z,10.40
2018-09-01T13:01:21.535Z,10.10
2018-09-01T13:03:51.085Z,10.33
2018-09-01T13:06:20.708Z,10.17
2018-09-01T13:08:50.291Z,9.30
2018-09-01T13:11:19.785Z,11.83
2018-09-01T13:13:49.323Z,17.43
2018-09-01T13:16:18.895Z,10.90
2018-09-01T13:18:48.490Z,10.93
2018-09-01T13:21:18.040Z,10.13
2018-09-01T13:23:47.531Z,10.37
2018-09-01T13:26:17.085Z,12.03
2018-09-01T13:28:46.644Z,29.80
2018-09-01T13:31:16.317Z,10.97
2018-09-01T13:33:45.823Z,10.53
2018-09-01T13:36:16.316Z,9.70
2018-09-01T13:38:46.025Z,10.53
2018-09-01T13:41:15.628Z,10.47
2018-09-01T13:43:45.170Z,9.77
2018-09-01T13:46:14.752Z,9.80
2018-09-01T13:48:44.362Z,10.50
2018-09-01T13:51:13.896Z,10.33
2018-09-01T13:53:43.506Z,10.47
2018-09-01T13:56:13.012Z,11.17
2018-09-01T13:58:42.602Z,10.83
2018-09-01T14:01:12.186Z,9.80
2018-09-01T14:03:41.723Z,10.67
2018-09-01T14:06:11.270Z,10.37
2018-09-01T14:08:40.824Z,10.73
2018-09-01T14:11:10.403Z,10.37
2018-09-01T14:13:39.935Z,10.37
2018-09-01T14:16:09.736Z,10.87
2018-09-01T14:18:39.236Z,9.63
2018-09-01T14:21:09.484Z,9.83
2018-09-01T14:23:39.035Z,10.73
2018-09-01T14:26:08.623Z,10.07
2018-09-01T14:28:38.131Z,10.63
2018-09-01T14:31:07.806Z,10.23
2018-09-01T14:33:37.298Z,10.97
2018-09-01T14:36:07.932Z,10.13
2018-09-01T14:38:38.084Z,10.30
2018-09-01T14:41:07.643Z,10.17
2018-09-01T14:43:37.214Z,10.07
2018-09-01T14:46:06.839Z,10.03
2018-09-01T14:48:36.363Z,10.10
2018-09-01T14:51:06.058Z,11.50
2018-09-01T14:53:35.658Z,11.90
2018-09-01T14:56:05.211Z,15.87
2018-09-01T14:58:34.766Z,10.53
2018-09-01T15:01:04.471Z,10.63
2018-09-01T15:03:34.043Z,11.63
2018-09-01T15:06:03.591Z,11.13
2018-09-01T15:08:33.214Z,14.60
2018-09-01T15:11:02.751Z,11.23
2018-09-01T15:13:32.349Z,10.80
2018-09-01T15:16:01.984Z,11.10
2018-09-01T15:18:31.543Z,10.30
2018-09-01T15:21:01.047Z,12.10
2018-09-01T15:23:30.614Z,10.63
2018-09-01T15:26:00.107Z,10.60
2018-09-01T15:28:29.726Z,10.87
2018-09-01T15:30:59.303Z,11.07
2018-09-01T15:33:28.891Z,11.40
2018-09-01T15:35:58.434Z,13.33
2018-09-01T15:38:27.998Z,11.30
2018-09-01T15:40:57.560Z,10.57
2018-09-01T15:43:27.176Z,11.73
2018-09-01T15:45:56.723Z,11.33
2018-09-01T15:48:26.275Z,12.60
2018-09-01T15:50:55.899Z,10.93
2018-09-01T15:53:25.472Z,10.97
2018-09-01T15:55:55.552Z,11.77
2018-09-01T15:58:25.108Z,11.03
2018-09-01T16:00:54.701Z,12.27
2018-09-01T16:03:24.422Z,10.73
2018-09-01T16:05:53.975Z,11.40
2018-09-01T16:08:23.564Z,10.60
2018-09-01T16:10:53.075Z,12.37
2018-09-01T16:13:22.647Z,10.83
2018-09-01T16:15:52.224Z,10.23
2018-09-01T16:18:21.748Z,10.63
2018-09-01T16:20:51.287Z,12.20
2018-09-01T16:23:20.905Z,11.20
2018-09-01T16:25:50.442Z,10.07
2018-09-01T16:28:19.995Z,11.27
2018-09-01T16:30:49.638Z,11.37
2018-09-01T16:33:19.144Z,10.83
2018-09-01T16:35:48.712Z,11.40
2018-09-01T16:38:18.273Z,11.13
2018-09-01T16:40:48.029Z,10.50
2018-09-01T16:43:17.668Z,11.50
2018-09-01T16:45:47.245Z,10.40
2018-09-01T16:48:16.886Z,12.10
2018-09-01T16:50:46.640Z,10.97
2018-09-01T16:53:16.162Z,12.00
2018-09-01T16:55:45.724Z,12.10
2018-09-01T16:58:15.267Z,17.30
2018-09-01T17:00:44.920Z,16.57
2018-09-01T17:03:14.337Z,15.07
2018-09-01T17:05:43.898Z,15.90
2018-09-01T17:08:13.453Z,18.10
2018-09-01T17:10:43.075Z,28.23
2018-09-01T17:13:12.735Z,31.27
2018-09-01T17:15:42.321Z,35.20
2018-09-01T17:18:11.959Z,16.93
2018-09-01T17:20:41.531Z,11.70
2018-09-01T17:23:11.165Z,12.73
2018-09-01T17:25:40.803Z,12.67
2018-09-01T17:28:10.327Z,21.63
2018-09-01T17:30:39.932Z,14.70
2018-09-01T17:33:09.594Z,17.43
2018-09-01T17:35:39.140Z,14.03
2018-09-01T17:38:08.691Z,12.10
2018-09-01T17:40:38.199Z,13.97
2018-09-01T17:43:07.815Z,12.87
2018-09-01T17:45:37.352Z,12.93
2018-09-01T17:48:06.867Z,13.30
2018-09-01T17:50:36.449Z,19.07
2018-09-01T17:53:06.023Z,13.87
2018-09-01T17:55:35.504Z,14.00
2018-09-01T17:58:05.063Z,13.20
2018-09-01T18:00:34.747Z,13.80
2018-09-01T18:03:04.255Z,11.50
2018-09-01T18:05:33.790Z,17.20
2018-09-01T18:08:03.432Z,12.47
2018-09-01T18:10:32.994Z,16.03
2018-09-01T18:13:02.535Z,17.60
2018-09-01T18:15:32.234Z,20.87
2018-09-01T18:18:01.828Z,12.53
2018-09-01T18:20:31.397Z,17.87
2018-09-01T18:23:00.893Z,12.90
2018-09-01T18:25:30.459Z,23.83
2018-09-01T18:28:00.000Z,22.90
2018-09-01T18:30:29.506Z,16.10
2018-09-01T18:32:59.034Z,14.07
2018-09-01T18:35:28.728Z,14.53
2018-09-01T18:37:58.167Z,17.53
2018-09-01T18:40:27.767Z,20.27
2018-09-01T18:42:57.501Z,15.57
2018-09-01T18:45:27.232Z,16.17
2018-09-01T18:47:57.457Z,12.30
2018-09-01T18:50:27.293Z,13.40
2018-09-01T18:52:56.871Z,14.63
2018-09-01T18:55:26.674Z,13.47
2018-09-01T18:57:56.394Z,14.83
2018-09-01T19:00:26.201Z,12.13
2018-09-01T19:02:55.839Z,12.37
2018-09-01T19:05:25.374Z,13.63
2018-09-01T19:07:54.983Z,18.50
2018-09-01T19:10:24.483Z,16.47
2018-09-01T19:12:54.027Z,14.40
2018-09-01T19:15:23.528Z,24.53
2018-09-01T19:17:53.092Z,19.83
2018-09-01T19:20:22.639Z,15.60
2018-09-01T19:22:52.184Z,18.87
2018-09-01T19:25:21.766Z,14.40
2018-09-01T19:27:51.299Z,15.53
2018-09-01T19:30:20.952Z,16.50
2018-09-01T19:32:50.538Z,14.10
2018-09-01T19:35:20.068Z,18.13
2018-09-01T19:37:49.647Z,18.20
2018-09-01T19:40:19.328Z,15.67
2018-09-01T19:42:48.847Z,15.13
2018-09-01T19:45:18.502Z,14.63
2018-09-01T19:47:47.956Z,14.17
2018-09-01T19:50:17.508Z,18.23
2018-09-01T19:52:47.047Z,13.73
2018-09-01T19:55:16.575Z,17.07
2018-09-01T19:57:46.165Z,16.70
2018-09-01T20:00:15.744Z,16.47
2018-09-01T20:02:45.243Z,14.50
2018-09-01T20:05:14.860Z,20.07
2018-09-01T20:07:44.408Z,19.00
2018-09-01T20:10:14.008Z,18.53
2018-09-01T20:12:43.486Z,17.53
2018-09-01T20:15:13.067Z,18.07
2018-09-01T20:17:42.636Z,16.53
2018-09-01T20:20:12.163Z,18.97
2018-09-01T20:22:41.691Z,18.50
2018-09-01T20:25:11.260Z,16.17
2018-09-01T20:27:40.776Z,15.10
2018-09-01T20:30:10.337Z,14.43
2018-09-01T20:32:39.936Z,13.27
2018-09-01T20:35:14.548Z,13.23
2018-09-01T20:37:44.123Z,12.40
2018-09-01T20:40:13.671Z,14.30
2018-09-01T20:42:43.223Z,13.67
2018-09-01T20:45:12.744Z,13.83
2018-09-01T20:47:42.323Z,14.07
2018-09-01T20:50:11.940Z,13.07
2018-09-01T20:52:41.487Z,13.17
2018-09-01T20:55:11.082Z,13.90
2018-09-01T20:57:40.724Z,14.73
2018-09-01T21:00:10.279Z,14.67
2018-09-01T21:02:39.780Z,15.10
2018-09-01T21:05:09.379Z,14.63
2018-09-01T21:07:38.989Z,15.70
2018-09-01T21:10:08.581Z,16.23
2018-09-01T21:12:38.084Z,16.43
2018-09-01T21:15:07.752Z,17.10
2018-09-01T21:17:37.308Z,17.40
2018-09-01T21:20:07.528Z,17.43
2018-09-01T21:22:37.122Z,17.50
2018-09-01T21:25:06.866Z,18.33
2018-09-01T21:27:36.412Z,17.00
2018-09-01T21:30:06.574Z,16.83
2018-09-01T21:32:36.108Z,17.00
2018-09-01T21:35:05.671Z,15.90
2018-09-01T21:37:35.239Z,16.57
2018-09-01T21:40:04.946Z,16.97
2018-09-01T21:42:34.475Z,16.97
2018-09-01T21:45:04.091Z,15.63
2018-09-01T21:47:33.821Z,15.23
2018-09-01T21:50:03.331Z,16.70
2018-09-01T21:52:32.864Z,15.83
2018-09-01T21:55:02.426Z,15.20
2018-09-01T21:57:31.958Z,15.70
2018-09-01T22:00:01.547Z,16.27
2018-09-01T22:02:31.245Z,15.97
2018-09-01T22:05:05.881Z,15.93
2018-09-01T22:07:35.540Z,18.27
2018-09-01T22:10:05.412Z,15.27
2018-09-01T22:12:34.930Z,15.23
2018-09-01T22:15:04.564Z,14.60
2018-09-01T22:17:34.380Z,14.37
2018-09-01T22:20:03.944Z,14.87
2018-09-01T22:22:33.550Z,14.57
2018-09-01T22:25:03.091Z,14.53
2018-09-01T22:27:32.644Z,14.70
2018-09-01T22:30:02.232Z,14.40
2018-09-01T22:32:31.770Z,15.13
2018-09-01T22:35:01.357Z,15.80
2018-09-01T22:37:30.890Z,15.77
2018-09-01T22:40:00.471Z,16.97
2018-09-01T22:42:30.026Z,16.00
2018-09-01T22:44:59.575Z,14.73
2018-09-01T22:47:30.748Z,15.60
2018-09-01T22:50:00.263Z,15.23
2018-09-01T22:52:29.808Z,15.30
2018-09-01T22:54:59.378Z,14.50
2018-09-01T22:57:28.918Z,18.00
2018-09-01T22:59:58.444Z,15.23
2018-09-01T23:02:27.930Z,15.90
2018-09-01T23:04:57.523Z,13.90
2018-09-01T23:07:27.068Z,15.57
2018-09-01T23:09:56.626Z,15.23
2018-09-01T23:12:26.144Z,14.53
2018-09-01T23:14:55.704Z,14.97
2018-09-01T23:17:25.215Z,14.93
2018-09-01T23:19:54.747Z,15.40
2018-09-01T23:22:24.249Z,17.47
2018-09-01T23:24:53.829Z,17.90
2018-09-01T23:27:23.355Z,16.90
2018-09-01T23:29:52.924Z,18.20
2018-09-01T23:32:22.587Z,17.57
2018-09-01T23:34:52.179Z,16.50
2018-09-01T23:37:21.756Z,15.80
2018-09-01T23:39:51.246Z,18.20
2018-09-01T23:42:20.783Z,17.97
2018-09-01T23:44:50.318Z,17.97
2018-09-01T23:47:19.894Z,17.20
2018-09-01T23:49:49.404Z,17.43
2018-09-01T23:52:19.045Z,17.27
2018-09-01T23:54:48.611Z,17.27
2018-09-01T23:57:18.211Z,17.23
2018-09-01T23:59:47.780Z,16.97
